createdAt,value
2018-07-07T00:01:54.575Z,10.13
2018-07-07T00:04:27.015Z,11.07
2018-07-07T00:06:59.893Z,7.40
2018-07-07T00:09:32.391Z,13.47
2018-07-07T00:12:05.356Z,13.93
2018-07-07T00:14:37.581Z,13.73
2018-07-07T00:17:10.181Z,13.00
2018-07-07T00:19:43.335Z,8.73
2018-07-07T00:22:16.773Z,7.80
2018-07-07T00:24:49.437Z,7.07
2018-07-07T00:27:21.795Z,11.00
2018-07-07T00:29:55.284Z,8.47
2018-07-07T00:32:27.646Z,10.27
2018-07-07T00:35:00.115Z,7.87
2018-07-07T00:37:32.682Z,10.63
2018-07-07T00:40:05.383Z,9.20
2018-07-07T00:42:38.081Z,14.80
2018-07-07T00:45:10.486Z,15.57
2018-07-07T00:47:42.990Z,12.30
2018-07-07T00:50:16.005Z,13.83
2018-07-07T00:52:48.615Z,15.57
2018-07-07T00:55:21.323Z,18.50
2018-07-07T00:57:53.770Z,13.43
2018-07-07T01:00:26.678Z,16.30
2018-07-07T01:03:04.407Z,11.13
2018-07-07T01:05:40.209Z,12.80
2018-07-07T01:08:12.662Z,16.13
2018-07-07T01:10:48.027Z,11.77
2018-07-07T01:13:23.451Z,17.17
2018-07-07T01:15:55.795Z,16.53
2018-07-07T01:21:49.359Z,9.87
2018-07-07T01:28:15.443Z,14.10
2018-07-07T01:30:48.707Z,18.70
2018-07-07T01:33:21.488Z,12.20
2018-07-07T01:35:54.343Z,12.57
2018-07-07T01:38:27.206Z,12.73
2018-07-07T01:41:00.007Z,12.43
2018-07-07T01:43:33.290Z,11.07
2018-07-07T01:46:06.705Z,13.17
2018-07-07T01:48:39.462Z,17.07
2018-07-07T01:51:13.322Z,14.37
2018-07-07T01:53:46.128Z,22.97
2018-07-07T01:56:22.865Z,18.17
2018-07-07T01:58:58.209Z,16.47
2018-07-07T02:01:32.176Z,19.10
2018-07-07T02:04:05.284Z,14.77
2018-07-07T02:06:39.491Z,18.07
2018-07-07T02:09:12.461Z,12.63
2018-07-07T02:11:45.833Z,20.03
2018-07-07T02:14:21.268Z,15.37
2018-07-07T02:16:54.688Z,12.23
2018-07-07T02:22:48.499Z,14.93
2018-07-07T02:25:21.808Z,12.63
2018-07-07T02:27:54.191Z,15.93
2018-07-07T02:30:26.546Z,22.10
2018-07-07T02:32:59.589Z,23.03
2018-07-07T02:35:32.145Z,13.57
2018-07-07T02:38:09.559Z,16.37
2018-07-07T02:40:43.356Z,16.43
2018-07-07T02:43:20.422Z,15.07
2018-07-07T02:45:52.987Z,12.33
2018-07-07T02:48:33.951Z,18.77
2018-07-07T02:51:08.826Z,17.33
2018-07-07T02:53:45.799Z,15.23
2018-07-07T02:56:18.368Z,14.17
2018-07-07T02:58:50.856Z,12.47
2018-07-07T03:01:23.187Z,19.13
2018-07-07T03:03:55.662Z,17.23
2018-07-07T03:06:28.038Z,17.37
2018-07-07T03:12:21.047Z,19.03
2018-07-07T03:14:53.582Z,22.73
2018-07-07T03:17:26.198Z,18.33
2018-07-07T03:19:59.152Z,16.23
2018-07-07T03:22:31.628Z,17.60
2018-07-07T03:25:04.174Z,18.97
2018-07-07T03:27:36.737Z,17.03
2018-07-07T03:30:09.608Z,13.50
2018-07-07T03:32:42.083Z,17.43
2018-07-07T03:35:14.547Z,15.87
2018-07-07T03:37:47.027Z,13.23
2018-07-07T03:40:19.591Z,15.93
2018-07-07T03:42:52.129Z,19.10
2018-07-07T03:45:24.680Z,21.47
2018-07-07T03:47:58.690Z,14.73
2018-07-07T03:50:31.426Z,14.73
2018-07-07T03:53:05.165Z,13.87
2018-07-07T03:55:37.784Z,12.33
2018-07-07T03:58:10.239Z,15.07
2018-07-07T04:00:42.973Z,13.83
2018-07-07T04:03:15.592Z,21.73
2018-07-07T04:05:48.072Z,15.90
2018-07-07T04:08:23.278Z,19.77
2018-07-07T04:10:56.829Z,18.10
2018-07-07T04:13:29.582Z,16.57
2018-07-07T04:16:02.116Z,14.73
2018-07-07T04:18:36.753Z,16.43
2018-07-07T04:21:09.404Z,17.87
2018-07-07T04:23:41.913Z,13.77
2018-07-07T04:26:14.368Z,19.93
2018-07-07T04:28:46.937Z,14.23
2018-07-07T04:31:19.391Z,16.80
2018-07-07T04:33:51.871Z,17.60
2018-07-07T04:36:24.364Z,15.73
2018-07-07T04:38:56.820Z,18.37
2018-07-07T04:41:29.318Z,23.30
2018-07-07T04:44:01.844Z,19.10
2018-07-07T04:46:34.389Z,16.90
2018-07-07T04:49:07.033Z,22.37
2018-07-07T04:51:39.507Z,19.20
2018-07-07T04:54:12.059Z,15.27
2018-07-07T04:56:44.477Z,14.13
2018-07-07T04:59:16.986Z,20.60
2018-07-07T05:01:49.554Z,15.20
2018-07-07T05:04:21.986Z,18.83
2018-07-07T05:06:54.625Z,19.03
2018-07-07T05:09:27.171Z,15.80
2018-07-07T05:11:59.653Z,20.90
2018-07-07T05:14:32.203Z,19.27
2018-07-07T05:17:04.719Z,18.20
2018-07-07T05:19:37.358Z,26.50
2018-07-07T05:22:09.936Z,14.50
2018-07-07T05:24:42.472Z,15.77
2018-07-07T05:27:15.093Z,15.37
2018-07-07T05:29:47.566Z,21.40
2018-07-07T05:32:18.742Z,21.50
2018-07-07T05:34:51.351Z,18.67
2018-07-07T05:37:23.858Z,16.17
2018-07-07T05:39:56.301Z,20.50
2018-07-07T05:42:28.836Z,25.53
2018-07-07T05:45:01.348Z,17.93
2018-07-07T05:47:33.804Z,20.63
2018-07-07T05:50:06.448Z,18.20
2018-07-07T05:52:39.092Z,27.60
2018-07-07T05:55:11.544Z,20.27
2018-07-07T05:57:43.997Z,28.87
2018-07-07T06:00:17.652Z,24.87
2018-07-07T06:02:50.229Z,24.17
2018-07-07T06:05:23.619Z,28.23
2018-07-07T06:07:56.602Z,24.80
2018-07-07T06:10:29.019Z,35.87
2018-07-07T06:13:01.519Z,24.90
2018-07-07T06:15:34.019Z,19.97
2018-07-07T06:18:06.465Z,24.53
2018-07-07T06:20:39.057Z,22.97
2018-07-07T06:23:11.754Z,19.60
2018-07-07T06:25:45.028Z,19.63
2018-07-07T06:31:25.166Z,25.13
2018-07-07T06:33:57.624Z,20.53
2018-07-07T06:36:30.164Z,19.37
2018-07-07T06:39:02.602Z,17.77
2018-07-07T06:41:35.094Z,18.67
2018-07-07T06:44:07.794Z,20.03
2018-07-07T06:46:40.242Z,23.30
2018-07-07T06:49:12.801Z,18.20
2018-07-07T06:51:45.229Z,26.00
2018-07-07T06:54:17.725Z,26.67
2018-07-07T06:56:50.463Z,23.23
2018-07-07T06:59:23.006Z,22.53
2018-07-07T07:01:55.440Z,18.60
2018-07-07T07:07:48.701Z,21.80
2018-07-07T07:10:20.994Z,17.80
2018-07-07T07:12:53.646Z,12.77
2018-07-07T07:15:25.842Z,18.27
2018-07-07T07:17:58.185Z,19.77
2018-07-07T07:20:30.406Z,15.67
2018-07-07T07:23:02.823Z,19.50
2018-07-07T07:25:35.090Z,15.53
2018-07-07T07:28:07.910Z,15.33
2018-07-07T07:30:40.529Z,13.40
2018-07-07T07:33:13.056Z,13.57
2018-07-07T07:35:45.454Z,9.20
2018-07-07T07:38:17.698Z,13.87
2018-07-07T07:40:49.905Z,17.67
2018-07-07T07:43:22.137Z,16.90
2018-07-07T07:45:54.380Z,11.67
2018-07-07T07:48:26.788Z,13.77
2018-07-07T07:50:59.092Z,15.17
2018-07-07T07:53:32.267Z,16.40
2018-07-07T07:59:11.486Z,20.27
2018-07-07T08:01:44.051Z,16.37
2018-07-07T08:04:16.304Z,16.10
2018-07-07T08:06:48.762Z,22.03
2018-07-07T08:09:21.073Z,16.07
2018-07-07T08:11:53.309Z,20.37
2018-07-07T08:14:25.880Z,18.30
2018-07-07T08:16:58.419Z,21.17
2018-07-07T08:19:31.256Z,17.73
2018-07-07T08:22:03.624Z,17.37
2018-07-07T08:24:36.012Z,19.00
2018-07-07T08:27:08.435Z,20.03
2018-07-07T08:29:40.858Z,25.33
2018-07-07T08:35:34.077Z,15.67
2018-07-07T08:38:06.665Z,11.47
2018-07-07T08:40:39.207Z,17.93
2018-07-07T08:43:13.868Z,12.33
2018-07-07T08:45:47.065Z,24.10
2018-07-07T08:48:19.428Z,17.70
2018-07-07T08:50:51.901Z,18.10
2018-07-07T08:53:23.166Z,19.00
2018-07-07T08:55:55.520Z,16.17
2018-07-07T08:58:27.943Z,15.17
2018-07-07T09:01:00.284Z,16.83
2018-07-07T09:03:32.647Z,18.10
2018-07-07T09:06:05.113Z,17.40
2018-07-07T09:08:37.351Z,19.33
2018-07-07T09:11:09.860Z,22.20
2018-07-07T09:13:42.301Z,22.80
2018-07-07T09:16:14.515Z,21.83
2018-07-07T09:18:47.083Z,17.43
2018-07-07T09:21:19.943Z,19.70
2018-07-07T09:23:52.726Z,15.13
2018-07-07T09:26:25.180Z,13.03
2018-07-07T09:28:57.694Z,23.73
2018-07-07T09:31:29.929Z,28.07
2018-07-07T09:34:02.256Z,18.23
2018-07-07T09:36:34.783Z,20.07
2018-07-07T09:42:28.188Z,16.70
2018-07-07T09:45:00.437Z,20.57
2018-07-07T09:47:33.797Z,18.67
2018-07-07T09:50:06.113Z,19.27
2018-07-07T09:52:38.449Z,22.30
2018-07-07T09:55:10.792Z,17.40
2018-07-07T09:57:43.249Z,20.90
2018-07-07T10:00:19.279Z,18.37
2018-07-07T10:02:51.556Z,26.30
2018-07-07T10:05:24.072Z,28.40
2018-07-07T10:07:56.298Z,27.60
2018-07-07T10:10:28.505Z,22.60
2018-07-07T10:13:00.825Z,23.00
2018-07-07T10:15:33.174Z,20.30
2018-07-07T10:21:37.027Z,19.83
2018-07-07T10:24:10.357Z,21.13
2018-07-07T10:26:42.947Z,18.30
2018-07-07T10:29:15.499Z,24.47
2018-07-07T10:31:48.030Z,21.23
2018-07-07T10:34:20.554Z,24.43
2018-07-07T10:36:51.799Z,17.53
2018-07-07T10:39:24.328Z,14.40
2018-07-07T10:41:56.876Z,37.00
2018-07-07T10:44:29.477Z,29.63
2018-07-07T10:47:02.051Z,20.87
2018-07-07T10:49:34.694Z,22.00
2018-07-07T10:52:07.270Z,27.33
2018-07-07T10:54:39.974Z,23.60
2018-07-07T11:00:34.142Z,26.30
2018-07-07T11:03:06.928Z,20.47
2018-07-07T11:05:40.792Z,18.47
2018-07-07T11:08:13.550Z,17.67
2018-07-07T11:10:46.151Z,19.73
2018-07-07T11:13:19.018Z,16.87
2018-07-07T11:15:51.745Z,16.07
2018-07-07T11:18:24.718Z,22.60
2018-07-07T11:20:57.415Z,21.40
2018-07-07T11:23:31.057Z,29.63
2018-07-07T11:26:03.698Z,24.27
2018-07-07T11:28:36.511Z,15.80
2018-07-07T11:31:09.548Z,15.57
2018-07-07T11:33:42.661Z,15.63
2018-07-07T11:36:15.474Z,20.37
2018-07-07T11:38:48.343Z,14.47
2018-07-07T11:41:23.723Z,19.90
2018-07-07T11:43:57.416Z,20.30
2018-07-07T11:46:30.321Z,19.10
2018-07-07T11:49:03.188Z,18.83
2018-07-07T11:51:36.014Z,17.53
2018-07-07T11:54:08.636Z,17.13
2018-07-07T11:56:41.504Z,20.50
2018-07-07T12:02:34.880Z,14.50
2018-07-07T12:05:07.437Z,13.77
2018-07-07T12:07:39.921Z,18.00
2018-07-07T12:10:12.517Z,18.17
2018-07-07T12:12:45.200Z,17.87
2018-07-07T12:25:22.915Z,15.97
2018-07-07T12:27:55.149Z,16.93
2018-07-07T12:30:27.338Z,14.43
2018-07-07T12:32:59.575Z,20.23
2018-07-07T12:35:31.818Z,20.40
2018-07-07T12:38:04.032Z,16.03
2018-07-07T12:40:36.164Z,19.07
2018-07-07T12:43:08.517Z,20.33
2018-07-07T12:45:40.690Z,25.10
2018-07-07T12:48:12.788Z,16.33
2018-07-07T12:50:45.118Z,20.13
2018-07-07T12:53:17.399Z,16.47
2018-07-07T12:55:49.554Z,16.83
2018-07-07T12:58:22.675Z,12.50
2018-07-07T13:00:57.107Z,18.23
2018-07-07T13:03:30.058Z,12.73
2018-07-07T13:06:03.809Z,14.97
2018-07-07T13:08:42.281Z,17.43
2018-07-07T13:11:14.972Z,17.93
2018-07-07T13:14:16.098Z,9.33
2018-07-07T13:16:49.682Z,12.10
2018-07-07T13:19:22.526Z,11.33
2018-07-07T13:21:55.249Z,15.87
2018-07-07T13:24:28.294Z,26.73
2018-07-07T13:27:01.099Z,16.73
2018-07-07T13:29:33.835Z,24.00
2018-07-07T13:32:06.996Z,25.40
2018-07-07T13:34:40.795Z,31.10
2018-07-07T13:37:13.621Z,17.87
2018-07-07T13:43:07.162Z,11.60
2018-07-07T13:45:39.945Z,20.80
2018-07-07T13:48:12.209Z,17.53
2018-07-07T13:50:44.608Z,19.53
2018-07-07T13:53:16.906Z,13.77
2018-07-07T13:55:49.150Z,14.07
2018-07-07T13:58:21.482Z,15.20
2018-07-07T14:00:54.559Z,21.33
2018-07-07T14:03:27.011Z,19.60
2018-07-07T14:09:28.058Z,20.20
2018-07-07T14:12:00.664Z,8.63
2018-07-07T14:14:33.580Z,18.33
2018-07-07T14:17:07.383Z,14.63
2018-07-07T14:19:40.113Z,25.17
2018-07-07T14:22:13.970Z,18.03
2018-07-07T14:24:46.736Z,21.63
2018-07-07T14:27:19.559Z,19.20
2018-07-07T14:29:52.205Z,12.13
2018-07-07T14:35:48.893Z,23.90
2018-07-07T14:38:22.592Z,26.13
2018-07-07T14:41:05.853Z,26.27
2018-07-07T14:43:47.467Z,21.33
2018-07-07T14:46:20.547Z,24.00
2018-07-07T14:48:54.587Z,29.13
2018-07-07T14:51:35.367Z,17.77
2018-07-07T14:54:07.762Z,17.83
2018-07-07T14:56:42.042Z,26.53
2018-07-07T14:59:14.485Z,31.73
2018-07-07T15:01:46.857Z,22.83
2018-07-07T15:04:19.325Z,21.40
2018-07-07T15:06:51.963Z,19.37
2018-07-07T15:09:25.482Z,24.33
2018-07-07T15:12:01.627Z,21.47
2018-07-07T15:14:34.010Z,25.20
2018-07-07T15:17:06.529Z,21.37
2018-07-07T15:19:38.872Z,23.77
2018-07-07T15:22:11.369Z,29.10
2018-07-07T15:24:44.693Z,23.23
2018-07-07T15:27:17.061Z,31.20
2018-07-07T15:29:49.801Z,24.40
2018-07-07T15:32:23.515Z,19.97
2018-07-07T15:34:55.879Z,25.90
2018-07-07T15:37:28.797Z,26.90
2018-07-07T15:40:01.227Z,27.27
2018-07-07T15:42:51.562Z,25.37
2018-07-07T15:45:24.239Z,35.80
2018-07-07T15:47:56.652Z,25.23
2018-07-07T15:50:29.143Z,22.03
2018-07-07T15:53:01.481Z,23.93
2018-07-07T15:55:33.894Z,27.40
2018-07-07T15:58:06.404Z,29.13
2018-07-07T16:00:38.765Z,28.00
2018-07-07T16:03:11.104Z,22.50
2018-07-07T16:05:43.495Z,30.00
2018-07-07T16:08:15.813Z,27.73
2018-07-07T16:10:48.619Z,24.60
2018-07-07T16:13:20.990Z,33.57
2018-07-07T16:15:53.443Z,31.03
2018-07-07T16:18:25.898Z,25.50
2018-07-07T16:20:58.312Z,28.47
2018-07-07T16:23:30.662Z,30.90
2018-07-07T16:26:03.349Z,23.80
2018-07-07T16:28:35.755Z,35.92
2018-07-07T16:31:08.251Z,34.57
2018-07-07T16:33:40.628Z,31.50
2018-07-07T16:36:12.999Z,21.15
2018-07-07T16:38:45.815Z,21.17
2018-07-07T16:41:18.418Z,21.93
2018-07-07T16:43:51.025Z,29.65
2018-07-07T16:46:23.577Z,17.60
2018-07-07T16:48:56.277Z,29.30
2018-07-07T16:51:30.163Z,35.17
2018-07-07T16:57:23.155Z,29.85
2018-07-07T16:59:55.960Z,26.12
2018-07-07T17:02:28.598Z,28.02
2018-07-07T17:08:29.179Z,30.55
2018-07-07T17:11:02.285Z,25.05
2018-07-07T17:13:35.058Z,28.55
2018-07-07T17:16:08.708Z,42.95
2018-07-07T17:18:41.436Z,36.98
2018-07-07T17:21:14.231Z,23.85
2018-07-07T17:23:47.024Z,32.63
2018-07-07T17:26:20.269Z,30.92
2018-07-07T17:28:52.673Z,31.23
2018-07-07T17:31:25.603Z,22.42
2018-07-07T17:33:58.382Z,34.35
2018-07-07T17:36:31.328Z,26.85
2018-07-07T17:39:04.327Z,31.07
2018-07-07T17:44:58.501Z,29.95
2018-07-07T17:51:01.769Z,31.15
2018-07-07T17:53:34.861Z,30.68
2018-07-07T17:56:07.735Z,31.90
2018-07-07T17:58:41.332Z,35.78
2018-07-07T18:01:14.282Z,29.25
2018-07-07T18:03:47.246Z,32.50
2018-07-07T18:06:22.035Z,49.53
2018-07-07T18:08:56.444Z,34.63
2018-07-07T18:11:29.093Z,36.20
2018-07-07T18:14:01.540Z,39.18
2018-07-07T18:16:35.405Z,29.00
2018-07-07T18:19:08.603Z,32.28
2018-07-07T18:21:41.645Z,28.55
2018-07-07T18:24:15.164Z,30.40
2018-07-07T18:26:47.886Z,37.63
2018-07-07T18:32:42.158Z,35.28
2018-07-07T18:35:15.066Z,33.18
2018-07-07T18:41:10.526Z,35.98
2018-07-07T18:43:43.091Z,31.62
2018-07-07T18:46:15.837Z,38.85
2018-07-07T18:48:48.462Z,26.10
2018-07-07T18:51:21.185Z,39.78
2018-07-07T18:53:53.731Z,27.45
2018-07-07T18:56:26.273Z,28.12
2018-07-07T18:58:58.601Z,30.75
2018-07-07T19:01:31.177Z,37.65
2018-07-07T19:04:41.521Z,41.88
2018-07-07T19:07:13.878Z,35.20
2018-07-07T19:09:44.892Z,36.00
2018-07-07T19:12:17.258Z,44.95
2018-07-07T19:18:20.831Z,40.08
2018-07-07T19:21:01.227Z,25.05
2018-07-07T19:23:38.710Z,26.23
2018-07-07T19:26:16.056Z,42.73
2018-07-07T19:28:48.825Z,43.63
2018-07-07T19:31:21.432Z,30.80
2018-07-07T19:33:58.356Z,33.65
2018-07-07T19:37:33.799Z,35.05
2018-07-07T19:43:27.519Z,32.70
2018-07-07T19:45:59.899Z,27.48
2018-07-07T19:48:32.248Z,36.63
2018-07-07T19:51:04.549Z,37.90
2018-07-07T19:53:36.806Z,29.15
2018-07-07T19:56:09.235Z,45.83
2018-07-07T19:58:41.516Z,34.50
2018-07-07T20:01:14.070Z,30.88
2018-07-07T20:03:46.485Z,40.25
2018-07-07T20:06:18.785Z,37.53
2018-07-07T20:12:12.498Z,38.25
2018-07-07T20:14:44.910Z,37.33
2018-07-07T20:17:18.991Z,40.92
2018-07-07T20:22:01.294Z,33.83
2018-07-07T20:24:37.454Z,41.58
2018-07-07T20:27:15.268Z,32.08
2018-07-07T20:29:47.879Z,26.05
2018-07-07T20:32:27.864Z,35.03
2018-07-07T20:35:00.809Z,33.40
2018-07-07T20:37:33.659Z,29.85
2018-07-07T20:40:06.413Z,30.88
2018-07-07T20:42:39.841Z,29.27
2018-07-07T20:45:12.634Z,29.73
2018-07-07T20:47:45.036Z,32.75
2018-07-07T20:50:17.592Z,35.13
2018-07-07T20:56:21.342Z,38.92
2018-07-07T20:58:54.515Z,36.23
2018-07-07T21:01:29.652Z,41.20
2018-07-07T21:07:34.133Z,34.47
2018-07-07T21:10:06.916Z,40.35
2018-07-07T21:12:39.880Z,40.43
2018-07-07T21:15:13.841Z,36.90
2018-07-07T21:17:47.080Z,34.75
2018-07-07T21:20:20.155Z,35.83
2018-07-07T21:22:53.896Z,36.70
2018-07-07T21:25:26.916Z,30.77
2018-07-07T21:27:59.842Z,32.60
2018-07-07T21:33:39.456Z,37.43
2018-07-07T21:36:11.867Z,29.37
2018-07-07T21:38:44.656Z,39.20
2018-07-07T21:41:17.244Z,36.17
2018-07-07T21:43:49.612Z,40.57
2018-07-07T21:46:22.047Z,36.65
2018-07-07T21:48:54.579Z,32.93
2018-07-07T21:51:26.960Z,33.10
2018-07-07T21:53:59.489Z,31.07
2018-07-07T21:56:38.611Z,31.67
2018-07-07T21:59:15.238Z,28.17
2018-07-07T22:02:01.270Z,33.00
2018-07-07T22:04:37.472Z,41.50
2018-07-07T22:07:16.171Z,37.57
2018-07-07T22:09:49.443Z,29.83
2018-07-07T22:12:22.949Z,31.33
2018-07-07T22:14:56.167Z,33.63
2018-07-07T22:17:28.534Z,31.67
2018-07-07T22:20:01.104Z,36.37
2018-07-07T22:22:33.891Z,28.50
2018-07-07T22:25:06.325Z,37.17
2018-07-07T22:27:38.741Z,37.83
2018-07-07T22:30:11.104Z,31.43
2018-07-07T22:32:50.551Z,35.73
2018-07-07T22:35:32.659Z,27.17
2018-07-07T22:38:08.912Z,32.93
2018-07-07T22:40:41.564Z,38.13
2018-07-07T22:43:15.191Z,40.63
2018-07-07T22:45:48.895Z,32.93
2018-07-07T22:48:22.436Z,32.87
2018-07-07T22:50:55.259Z,48.40
2018-07-07T22:53:27.840Z,29.40
2018-07-07T22:56:00.185Z,29.53
2018-07-07T22:58:32.991Z,44.00
2018-07-07T23:01:05.732Z,37.50
2018-07-07T23:03:38.172Z,34.63
2018-07-07T23:06:10.550Z,41.23
2018-07-07T23:12:21.435Z,32.73
2018-07-07T23:14:55.489Z,40.63
2018-07-07T23:17:27.596Z,30.43
2018-07-07T23:20:00.005Z,36.90
2018-07-07T23:22:49.186Z,30.50
2018-07-07T23:25:21.343Z,49.33
2018-07-07T23:27:53.775Z,30.23
2018-07-07T23:30:25.930Z,39.43
2018-07-07T23:32:58.038Z,53.27
2018-07-07T23:38:57.242Z,36.93
2018-07-07T23:41:29.572Z,37.70
2018-07-07T23:44:07.337Z,35.07
2018-07-07T23:50:11.592Z,32.03
2018-07-07T23:52:44.431Z,44.10
2018-07-07T23:55:17.644Z,36.57
2018-07-07T23:57:50.120Z,34.47
